Arlington, Wisconsin
Current Conditions -  °F | °C
As of 11:53 PM on Wednesday 22 Oct 2014 (Local Time) from KMSN Reporting Station
Clear Clear  
Wind Chill: 37°   Ceiling: Unl
Heat Index: 42°   Visibility: 10mi
Dew Point: 38°   Wind: 9mph
Humidity: 85%   Direction: 160°SSE
Pressure: 30.22"   Gusts: NA
Location:  43.34°N, 89.38°W
Report Text: KMSN 230453Z AUTO 16008KT 10SM CLR 06/03 A3022 RMK AO2 SLP238 T00560033
Loading
Personal Weather Stations






























Interactive Weather Map
Tropical Storm Tracking
New forecast layout! Learn more

10-Day Weather Forecast

Advertisements
Track Severe Weather on mobile